ADDS METAR Data INFO
IDs: Format: Raw Decoded Include TAF

Data at: 0503 UTC 23 May 2017

KFST 230453Z AUTO 11012KT 10SM BKN014 18/17 A3000 RMK AO2 SLP117 T01780172
KFST 230353Z AUTO 08008KT 10SM CLR 17/17 A3000 RMK AO2 SLP121 T01720167
KFST 230253Z AUTO 07009KT 10SM CLR 17/17 A3000 RMK AO2 SLP122 60038 T01720167 53027
KFST 230153Z AUTO 11012KT 10SM CLR 18/16 A2992 RMK AO2 SLP094 T01780156
KFST 230053Z AUTO 09012KT 10SM CLR 20/14 A2992 RMK AO2 PK WND 25037/0000 LTG DSNT NE-SE RAB2354E42 TSE18 SLP093 P0038 T02000144
KFST 230050Z AUTO 06010KT 10SM FEW110 20/15 A2991 RMK AO2 PK WND 25037/0000 LTG DSNT NE-SE RAB2354E42 TSE18 P0038
KFST 230024Z AUTO VRB05KT 10SM VCTS -RA SCT037 SCT075 BKN110 19/14 A2995 RMK AO2 PK WND 25037/0000 LTG DSNT ALQDS RAB2354 TSE18 P0038 T01890144
KFST 230013Z AUTO 14011KT 3SM -TSRA SCT039 BKN070 OVC095 18/14 A2996 RMK AO2 PK WND 25037/0000 LTG DSNT ALQDS RAB2354 P0037 T01830144
KFST 230011Z AUTO 12009G15KT 1 1/2SM +TSRA SCT039 BKN070 OVC100 19/15 A2997 RMK AO2 PK WND 25037/0000 LTG DSNT ALQDS RAB2354 P0037 T01890150
KFST 230002Z AUTO 14007G37KT 080V330 3/4SM +TSRA FEW015 SCT037 BKN070 21/17 A3002 RMK AO2 PK WND 25037/0000 LTG DSNT ALQDS RAB2354 P0029 T02060167
KFST 230000Z AUTO 28021G37KT 250V330 1 1/4SM +TSRA FEW011 SCT037 BKN060 22/18 A3003 RMK AO2 PK WND 25037/0000 LTG DSNT ALQDS RAB2354 P0022 T02220183
KFST 222353Z AUTO 01005KT 9SM TS SCT065 SCT110 24/17 A2999 RMK AO2 LTG DSNT SW-N TSB42 PRESRR SLP115 T02440172 10300 20244 53027
KFST 222348Z AUTO 08008G17KT 10SM TS FEW075 SCT110 24/17 A2995 RMK AO2 LTG DSNT SW-N TSB42 PRESRR
KFST 222338Z AUTO 09014KT 10SM VCTS CLR 24/16 A2986 RMK AO2 LTG DSNT SW-N PRESFR T02440161
KFST 222253Z AUTO 12018G25KT 10SM CLR 28/16 A2990 RMK AO2 SLP080 T02780161
KFST 222153Z AUTO 10SM CLR 29/16 A2991 RMK AO2 LTG DSNT E-SW SLP082 T02940156
KFST 222053Z AUTO 05013KT 10SM CLR 29/16 A2993 RMK AO2 SLP092 T02890156 58026
KFST 221953Z AUTO 00000KT 10SM CLR 29/13 A2996 RMK AO2 SLP103 T02940133
KFST 221853Z AUTO 33010KT 10SM CLR 28/14 A2999 RMK AO2 SLP114 T02780139
KFST 221753Z AUTO 00000KT 10SM CLR 26/14 A3001 RMK AO2 SLP123 6//// T02560139 58015
KFST 221653Z AUTO 35005KT 10SM CLR 24/13 A3004 RMK AO2 SLP132 T02390133
KFST 221553Z AUTO 28006KT 10SM 23/14 A3005 RMK AO2 SLP135 T02280144
KFST 221505Z AUTO A3006 RMK AO2 PWINO PNO $
KFST 221453Z AUTO 10SM OVC023 21/15 A3006 RMK AO2 SLP143 T02060150 53007
KFST 221431Z AUTO 20006KT 10SM BKN026 21/16 A3006 RMK AO2 T02060156
KFST 221353Z AUTO 14007KT 10SM CLR 19/16 A3006 RMK AO2 SLP140 T01940156
KFST 221304Z AUTO 14008KT 10SM SCT020 18/16 A3005 RMK AO2 T01780156
KFST 221253Z AUTO 15008KT 10SM FEW013 BKN020 18/16 A3004 RMK AO2 SLP136 T01780156
KFST 221249Z AUTO 14011KT 10SM SCT013 BKN022 18/16 A3004 RMK AO2
KFST 221200Z AUTO 15011G17KT 10SM OVC014 18/16 A3003 RMK AO2 T01780156 $
KFST 221153Z AUTO 15010KT 10SM OVC015 18/16 A3003 RMK AO2 SLP131 70003 T01780156 10178 20161 56008 $
KFST 221053Z AUTO 14008KT 10SM OVC015 18/16 A3004 RMK AO2 SLP133 T01780156 $
KFST 220953Z AUTO 13008KT 10SM OVC015 17/15 A3005 RMK AO2 SLP137 T01720150 $
KFST 220929Z AUTO 12006KT 10SM BKN015 17/15 A3006 RMK AO2 T01670150 $
KFST 220853Z AUTO 14008KT 10SM CLR 17/14 A3006 RMK AO2 SLP142 T01670144 56011 $
KFST 220753Z AUTO 13006KT 10SM CLR 16/14 A3007 RMK AO2 SLP144 T01610139 $
KFST 220653Z AUTO 14007KT 10SM CLR 16/14 A3008 RMK AO2 SLP149 T01610139 $
KFST 220553Z AUTO 14008KT 10SM CLR 17/13 A3010 RMK AO2 SLP155 T01670133 10222 20167 402330167 50004 $
KFST 220453Z AUTO 14008G16KT 10SM CLR 17/14 A3010 RMK AO2 SLP158 T01720139 $
KFST 220353Z AUTO 17009KT 10SM CLR 18/14 A3010 RMK AO2 SLP157 T01780144 $
KFST 220253Z AUTO 15009KT 10SM CLR 18/14 A3008 RMK AO2 SLP149 T01830144 51010 $
KFST 220153Z AUTO 14012G19KT 10SM CLR 19/13 A3007 RMK AO2 SLP143 T01890133 $
KFST 220053Z AUTO 13014G22KT 10SM CLR 20/14 A3006 RMK AO2 SLP142 T02000139 $
KFST 212353Z AUTO 14014G24KT 10SM CLR 22/13 A3005 RMK AO2 SLP136 T02170128 10233 20194 56010 $
KFST 212253Z AUTO 12016G19KT 10SM CLR 23/13 A3005 RMK AO2 SLP135 T02330133 $
KFST 212153Z AUTO 12012KT 10SM CLR 23/13 A3005 RMK AO2 SLP133 T02330128 $
KFST 212053Z AUTO 10013KT 10SM FEW023 21/16 A3008 RMK AO2 SLP146 T02110156 50000 $
KFST 211953Z AUTO 08012KT 10SM CLR 22/16 A3009 RMK AO2 SLP150 T02170156 $
KFST 211853Z AUTO 00000KT 10SM CLR 21/16 A3008 RMK AO2 SLP146 T02060156 $
KFST 211759Z AUTO 11016G21KT 10SM SCT013 SCT020 19/17 A3006 RMK AO2 PRESFR T01940172 $
KFST 211753Z AUTO 12011KT 10SM BKN012 19/17 A3008 RMK AO2 RAE1656 PRESFR SLP146 P0000 60003 T01940172 10200 20183 55019 $
KFST 211730Z AUTO VRB03KT 10SM BKN012 19/17 A3011 RMK AO2 LTG DSNT N-E RAE1656 P0000 T01890172 $


Page loaded:  05:03 UTC  |   10:03 PM Pacific  |   11:03 PM Mountain  |   12:03 AM Central  |   01:03 AM Eastern

 

ADVISORIES

FORECASTS

FORECASTS

OBSERVATIONS

USER TOOLS

ABOUT US